createdAt,value
2022-09-27T00:00:33.635Z,1.70
2022-09-27T00:03:03.930Z,1.30
2022-09-27T00:05:32.650Z,1.17
2022-09-27T00:08:01.069Z,1.30
2022-09-27T00:10:29.909Z,1.30
2022-09-27T00:12:58.342Z,1.37
2022-09-27T00:15:26.768Z,1.30
2022-09-27T00:17:55.405Z,1.13
2022-09-27T00:20:25.606Z,1.10
2022-09-27T00:22:54.039Z,1.10
2022-09-27T00:25:22.755Z,1.10
2022-09-27T00:27:52.146Z,1.10
2022-09-27T00:30:20.589Z,1.30
2022-09-27T00:32:49.298Z,1.10
2022-09-27T00:35:17.977Z,1.07
2022-09-27T00:37:49.670Z,1.27
2022-09-27T00:40:19.766Z,1.30
2022-09-27T00:42:48.487Z,1.27
2022-09-27T00:45:18.015Z,1.23
2022-09-27T00:47:52.005Z,1.40
2022-09-27T00:50:26.393Z,1.20
2022-09-27T00:53:01.918Z,1.17
2022-09-27T00:55:32.771Z,1.50
2022-09-27T00:58:01.562Z,1.10
2022-09-27T01:00:30.302Z,1.23
2022-09-27T01:02:59.226Z,1.40
2022-09-27T01:05:29.449Z,1.20
2022-09-27T01:08:01.216Z,2.30
2022-09-27T01:10:32.306Z,1.50
2022-09-27T01:13:08.218Z,1.20
2022-09-27T01:15:39.241Z,1.70
2022-09-27T01:18:15.417Z,1.27
2022-09-27T01:20:55.807Z,1.30
2022-09-27T01:23:39.550Z,1.30
2022-09-27T01:26:14.474Z,1.37
2022-09-27T01:28:52.056Z,1.30
2022-09-27T01:31:26.426Z,1.27
2022-09-27T01:33:58.093Z,1.37
2022-09-27T01:36:30.003Z,1.30
2022-09-27T01:39:08.089Z,1.50
2022-09-27T01:41:38.321Z,1.40
2022-09-27T01:44:09.472Z,1.17
2022-09-27T01:46:41.814Z,1.20
2022-09-27T01:49:12.068Z,1.40
2022-09-27T01:51:41.799Z,1.40
2022-09-27T01:54:12.978Z,1.73
2022-09-27T01:56:42.922Z,1.70
2022-09-27T01:59:13.405Z,1.40
2022-09-27T02:01:45.741Z,1.40
2022-09-27T02:04:17.338Z,1.40
2022-09-27T02:06:47.464Z,1.37
2022-09-27T02:09:19.075Z,1.40
2022-09-27T02:11:53.998Z,1.40
2022-09-27T02:14:27.025Z,1.67
2022-09-27T02:16:58.670Z,1.43
2022-09-27T02:19:33.034Z,1.30
2022-09-27T02:22:03.733Z,1.13
2022-09-27T02:24:36.958Z,1.30
2022-09-27T02:27:08.594Z,1.40
2022-09-27T02:29:41.063Z,1.30
2022-09-27T02:32:10.861Z,1.20
2022-09-27T02:34:40.635Z,1.40
2022-09-27T02:37:09.206Z,1.53
2022-09-27T02:39:37.670Z,1.33
2022-09-27T02:42:06.929Z,1.40
2022-09-27T02:44:36.699Z,1.70
2022-09-27T02:47:10.456Z,1.60
2022-09-27T02:49:46.617Z,1.40
2022-09-27T02:52:19.676Z,1.40
2022-09-27T02:54:54.540Z,1.53
2022-09-27T02:57:29.174Z,1.43
2022-09-27T03:00:05.251Z,1.37
2022-09-27T03:02:35.097Z,1.50
2022-09-27T03:05:07.674Z,1.20
2022-09-27T03:07:38.522Z,1.30
2022-09-27T03:10:07.759Z,1.20
2022-09-27T03:12:36.446Z,1.40
2022-09-27T03:15:05.331Z,1.10
2022-09-27T03:17:33.881Z,1.20
2022-09-27T03:20:02.569Z,1.20
2022-09-27T03:22:32.481Z,1.13
2022-09-27T03:25:00.981Z,1.10
2022-09-27T03:27:29.604Z,1.03
2022-09-27T03:29:58.343Z,1.17
2022-09-27T03:32:27.035Z,1.20
2022-09-27T03:34:58.190Z,1.30
2022-09-27T03:37:27.113Z,1.20
2022-09-27T03:39:56.991Z,1.00
2022-09-27T03:42:25.654Z,1.20
2022-09-27T03:44:54.094Z,1.00
2022-09-27T03:47:23.417Z,1.00
2022-09-27T03:49:51.920Z,1.30
2022-09-27T03:52:20.602Z,1.20
2022-09-27T03:54:49.189Z,1.20
2022-09-27T03:57:19.108Z,1.20
2022-09-27T03:59:47.615Z,1.23
2022-09-27T04:02:16.184Z,1.10
2022-09-27T04:04:45.275Z,1.10
2022-09-27T04:07:13.702Z,1.10
2022-09-27T04:09:44.842Z,1.20
2022-09-27T04:12:13.766Z,1.10
2022-09-27T04:14:43.590Z,1.20
2022-09-27T04:17:12.143Z,1.10
2022-09-27T04:19:40.873Z,1.33
2022-09-27T04:22:09.381Z,1.00
2022-09-27T04:24:37.797Z,1.20
2022-09-27T04:27:06.508Z,1.00
2022-09-27T04:29:34.943Z,1.13
2022-09-27T04:32:04.893Z,1.20
2022-09-27T04:34:51.129Z,1.20
2022-09-27T04:37:19.549Z,1.00
2022-09-27T04:39:49.145Z,1.03
2022-09-27T04:42:17.860Z,1.10
2022-09-27T04:44:47.850Z,1.10
2022-09-27T04:47:18.613Z,1.37
2022-09-27T04:49:47.038Z,1.00
2022-09-27T04:52:15.814Z,1.13
2022-09-27T04:54:44.497Z,1.30
2022-09-27T04:57:16.664Z,1.20
2022-09-27T04:59:45.097Z,1.30
2022-09-27T05:02:13.844Z,1.20
2022-09-27T05:04:43.702Z,1.20
2022-09-27T05:07:12.131Z,1.20
2022-09-27T05:09:40.734Z,1.30
2022-09-27T05:12:09.148Z,1.40
2022-09-27T05:14:37.889Z,1.93
2022-09-27T05:17:08.049Z,1.30
2022-09-27T05:19:36.594Z,1.30
2022-09-27T05:22:06.542Z,1.40
2022-09-27T05:24:35.791Z,1.50
2022-09-27T05:27:04.533Z,1.30
2022-09-27T05:29:33.074Z,1.23
2022-09-27T05:32:01.590Z,1.50
2022-09-27T05:34:32.598Z,1.30
2022-09-27T05:37:01.231Z,1.50
2022-09-27T05:39:31.226Z,1.40
2022-09-27T05:41:59.672Z,1.20
2022-09-27T05:44:28.271Z,1.30
2022-09-27T05:46:56.769Z,1.40
2022-09-27T05:49:25.209Z,1.50
2022-09-27T05:51:53.739Z,1.43
2022-09-27T05:54:22.238Z,1.37
2022-09-27T05:56:52.174Z,1.40
2022-09-27T05:59:20.719Z,1.60
2022-09-27T06:01:49.392Z,1.33
2022-09-27T06:04:17.929Z,1.47
2022-09-27T06:06:46.446Z,1.47
2022-09-27T06:09:15.788Z,1.40
2022-09-27T06:11:45.497Z,1.70
2022-09-27T06:14:15.820Z,1.60
2022-09-27T06:16:45.759Z,1.60
2022-09-27T06:19:14.329Z,1.60
2022-09-27T06:21:42.909Z,1.80
2022-09-27T06:24:11.523Z,1.87
2022-09-27T06:26:39.962Z,1.53
2022-09-27T06:29:08.787Z,1.67
2022-09-27T06:31:38.691Z,1.27
2022-09-27T06:34:08.337Z,1.40
2022-09-27T06:36:36.875Z,1.40
2022-09-27T06:39:05.564Z,1.53
2022-09-27T06:41:36.181Z,1.33
2022-09-27T06:44:05.031Z,1.20
2022-09-27T06:46:33.680Z,1.40
2022-09-27T06:49:03.550Z,1.20
2022-09-27T06:51:31.973Z,1.50
2022-09-27T06:54:01.323Z,1.50
2022-09-27T06:56:29.758Z,1.30
2022-09-27T06:59:15.792Z,1.37
2022-09-27T07:01:44.523Z,1.20
2022-09-27T07:04:15.093Z,1.30
2022-09-27T07:06:43.640Z,1.30
2022-09-27T07:09:12.254Z,1.50
2022-09-27T07:11:42.261Z,1.50
2022-09-27T07:14:10.946Z,1.47
2022-09-27T07:16:39.656Z,1.60
2022-09-27T07:19:11.801Z,1.40
2022-09-27T07:21:41.727Z,1.60
2022-09-27T07:24:10.286Z,1.40
2022-09-27T07:26:38.909Z,1.60
2022-09-27T07:29:07.648Z,1.70
2022-09-27T07:31:36.714Z,1.60
2022-09-27T07:34:05.259Z,1.43
2022-09-27T07:36:33.689Z,1.40
2022-09-27T07:39:03.708Z,1.60
2022-09-27T07:41:32.341Z,1.70
2022-09-27T07:44:00.838Z,1.30
2022-09-27T07:46:29.336Z,1.50
2022-09-27T07:48:57.999Z,1.60
2022-09-27T07:51:26.459Z,1.60
2022-09-27T07:53:54.906Z,1.47
2022-09-27T07:56:24.963Z,1.40
2022-09-27T07:58:53.502Z,1.40
2022-09-27T08:01:22.003Z,1.60
2022-09-27T08:03:50.607Z,1.40
2022-09-27T08:06:19.162Z,1.30
2022-09-27T08:08:47.595Z,1.30
2022-09-27T08:11:16.621Z,1.40
2022-09-27T08:13:47.933Z,1.30
2022-09-27T08:16:16.395Z,1.33
2022-09-27T08:18:45.402Z,1.40
2022-09-27T08:21:14.125Z,1.40
2022-09-27T08:23:42.899Z,1.40
2022-09-27T08:26:11.463Z,1.50
2022-09-27T08:28:40.069Z,1.40
2022-09-27T08:31:10.003Z,1.60
2022-09-27T08:33:41.434Z,1.60
2022-09-27T08:36:12.568Z,1.30
2022-09-27T08:38:41.262Z,1.63
2022-09-27T08:41:11.337Z,1.53
2022-09-27T08:43:44.065Z,1.40
2022-09-27T08:46:19.437Z,1.30
2022-09-27T08:48:51.612Z,1.33
2022-09-27T08:51:23.242Z,1.50
2022-09-27T08:53:54.990Z,1.50
2022-09-27T08:56:26.816Z,1.50
2022-09-27T08:58:58.391Z,1.60
2022-09-27T09:01:29.262Z,1.53
2022-09-27T09:03:59.986Z,1.40
2022-09-27T09:06:30.045Z,1.20
2022-09-27T09:09:04.981Z,1.60
2022-09-27T09:11:59.791Z,1.60
2022-09-27T09:14:41.966Z,2.07
2022-09-27T09:17:15.821Z,1.40
2022-09-27T09:19:49.167Z,1.70
2022-09-27T09:22:26.087Z,1.60
2022-09-27T09:25:02.612Z,1.70
2022-09-27T09:27:34.743Z,1.93
2022-09-27T09:30:11.471Z,1.80
2022-09-27T09:32:47.054Z,1.70
2022-09-27T09:35:17.627Z,1.80
2022-09-27T09:37:47.143Z,1.80
2022-09-27T09:40:20.023Z,1.73
2022-09-27T09:42:50.945Z,1.77
2022-09-27T09:45:21.234Z,1.70
2022-09-27T09:47:53.538Z,1.77
2022-09-27T09:50:27.075Z,2.00
2022-09-27T09:52:58.371Z,2.20
2022-09-27T09:55:30.962Z,2.03
2022-09-27T09:58:03.932Z,2.20
2022-09-27T10:00:32.558Z,2.13
2022-09-27T10:03:02.759Z,2.07
2022-09-27T10:05:31.324Z,2.13
2022-09-27T10:08:00.901Z,2.20
2022-09-27T10:10:29.898Z,2.00
2022-09-27T10:12:59.049Z,2.00
2022-09-27T10:15:30.281Z,2.17
2022-09-27T10:17:59.449Z,2.80
2022-09-27T10:20:32.191Z,2.30
2022-09-27T10:23:02.872Z,2.43
2022-09-27T10:25:47.050Z,2.23
2022-09-27T10:28:29.690Z,2.67
2022-09-27T10:30:59.260Z,2.20
2022-09-27T10:33:28.203Z,1.90
2022-09-27T10:35:58.062Z,1.97
2022-09-27T10:38:28.146Z,2.67
2022-09-27T10:40:58.772Z,2.00
2022-09-27T10:43:32.324Z,1.73
2022-09-27T10:46:16.785Z,2.10
2022-09-27T10:48:45.438Z,2.10
2022-09-27T10:51:27.233Z,1.70
2022-09-27T10:54:00.397Z,1.70
2022-09-27T10:56:30.619Z,2.30
2022-09-27T10:59:00.165Z,1.77
2022-09-27T11:01:29.123Z,1.73
2022-09-27T11:03:59.477Z,1.90
2022-09-27T11:06:32.292Z,1.73
2022-09-27T11:09:12.054Z,1.80
2022-09-27T11:11:40.548Z,1.87
2022-09-27T11:14:19.350Z,2.07
2022-09-27T11:16:52.850Z,2.10
2022-09-27T11:19:28.154Z,2.00
2022-09-27T11:22:01.383Z,1.70
2022-09-27T11:24:37.514Z,1.60
2022-09-27T11:27:11.643Z,1.83
2022-09-27T11:29:46.565Z,2.50
2022-09-27T11:32:19.694Z,1.80
2022-09-27T11:35:03.641Z,1.77
2022-09-27T11:37:37.920Z,1.93
2022-09-27T11:40:14.224Z,1.80
2022-09-27T11:42:58.714Z,1.60
2022-09-27T11:45:56.465Z,1.60
2022-09-27T11:48:39.898Z,1.80
2022-09-27T11:51:13.238Z,1.63
2022-09-27T11:53:50.593Z,1.50
2022-09-27T11:56:25.062Z,2.13
2022-09-27T11:59:02.834Z,1.53
2022-09-27T12:01:35.530Z,1.67
2022-09-27T12:04:20.059Z,1.70
2022-09-27T12:06:50.501Z,1.73
2022-09-27T12:09:22.813Z,1.67
2022-09-27T12:11:52.518Z,1.70
2022-09-27T12:14:26.797Z,1.70
2022-09-27T12:16:56.581Z,1.80
2022-09-27T12:19:26.242Z,1.90
2022-09-27T12:21:55.254Z,1.77
2022-09-27T12:24:30.725Z,1.83
2022-09-27T12:27:01.445Z,2.20
2022-09-27T12:29:34.190Z,2.07
2022-09-27T12:32:06.190Z,2.10
2022-09-27T12:34:37.773Z,1.90
2022-09-27T12:37:11.487Z,2.20
2022-09-27T12:39:45.561Z,2.00
2022-09-27T12:42:16.778Z,1.70
2022-09-27T12:44:49.028Z,1.90
2022-09-27T12:47:34.965Z,1.90
2022-09-27T12:50:06.837Z,1.80
2022-09-27T12:52:38.407Z,2.13
2022-09-27T12:55:16.364Z,1.60
2022-09-27T12:57:51.794Z,1.60
2022-09-27T13:00:22.085Z,1.80
2022-09-27T13:03:15.615Z,1.57
2022-09-27T13:06:03.856Z,1.27
2022-09-27T13:08:50.743Z,1.67
2022-09-27T13:11:26.233Z,1.63
2022-09-27T13:13:57.368Z,1.70
2022-09-27T13:16:26.838Z,1.53
2022-09-27T13:18:59.590Z,1.50
2022-09-27T13:21:46.927Z,1.70
2022-09-27T13:24:30.850Z,1.80
2022-09-27T13:27:01.490Z,1.97
2022-09-27T13:29:31.839Z,2.10
2022-09-27T13:32:04.818Z,2.10
2022-09-27T13:34:40.987Z,2.07
2022-09-27T13:37:27.766Z,2.10
2022-09-27T13:40:12.159Z,2.20
2022-09-27T13:42:46.338Z,1.80
2022-09-27T13:45:24.691Z,1.90
2022-09-27T13:47:54.089Z,1.87
2022-09-27T13:50:24.921Z,2.07
2022-09-27T13:52:59.606Z,1.90
2022-09-27T13:55:42.325Z,1.80
2022-09-27T13:58:25.853Z,1.83
2022-09-27T14:00:56.081Z,1.97
2022-09-27T14:03:27.686Z,2.07
2022-09-27T14:05:57.691Z,1.90
2022-09-27T14:08:28.939Z,1.63
2022-09-27T14:10:58.121Z,1.80
2022-09-27T14:13:28.977Z,1.90
2022-09-27T14:15:58.388Z,1.80
2022-09-27T14:18:26.987Z,1.70
2022-09-27T14:20:55.533Z,2.00
2022-09-27T14:23:25.037Z,1.77
2022-09-27T14:25:54.929Z,1.90
2022-09-27T14:28:24.563Z,1.97
2022-09-27T14:31:08.032Z,2.47
2022-09-27T14:33:38.062Z,1.70
2022-09-27T14:36:26.075Z,2.37
2022-09-27T14:38:55.484Z,2.20
2022-09-27T14:41:25.666Z,2.00
2022-09-27T14:43:54.315Z,1.93
2022-09-27T14:46:29.972Z,2.10
2022-09-27T14:49:00.591Z,2.10
2022-09-27T14:51:30.150Z,1.87
2022-09-27T14:54:01.320Z,2.60
2022-09-27T14:56:32.392Z,2.30
2022-09-27T14:59:03.099Z,2.20
2022-09-27T15:01:33.334Z,2.30
2022-09-27T15:04:07.483Z,2.10
2022-09-27T15:06:37.878Z,2.10
2022-09-27T15:09:07.134Z,1.90
2022-09-27T15:11:36.987Z,1.70
2022-09-27T15:14:06.837Z,2.00
2022-09-27T15:16:36.611Z,1.70
2022-09-27T15:19:08.843Z,1.97
2022-09-27T15:21:38.920Z,1.90
2022-09-27T15:24:07.551Z,1.70
2022-09-27T15:26:38.066Z,1.80
2022-09-27T15:29:06.953Z,1.50
2022-09-27T15:31:36.919Z,1.80
2022-09-27T15:34:07.350Z,1.70
2022-09-27T15:36:51.297Z,1.50
2022-09-27T15:39:20.539Z,1.50
2022-09-27T15:42:10.158Z,1.43
2022-09-27T15:44:40.138Z,1.40
2022-09-27T15:47:31.188Z,1.57
2022-09-27T15:50:01.194Z,1.60
2022-09-27T15:52:43.262Z,1.30
2022-09-27T15:55:13.498Z,1.40
2022-09-27T15:57:42.461Z,1.80
2022-09-27T16:00:14.141Z,1.63
2022-09-27T16:02:42.832Z,1.27
2022-09-27T16:05:12.894Z,1.50
2022-09-27T16:07:41.634Z,1.40
2022-09-27T16:10:15.088Z,1.77
2022-09-27T16:12:44.687Z,1.60
2022-09-27T16:15:13.818Z,1.50
2022-09-27T16:17:43.851Z,1.70
2022-09-27T16:20:17.716Z,1.53
2022-09-27T16:22:46.298Z,1.43
2022-09-27T16:25:14.987Z,1.43
2022-09-27T16:27:43.604Z,1.47
2022-09-27T16:30:12.603Z,1.50
2022-09-27T16:32:42.701Z,1.50
2022-09-27T16:35:11.560Z,1.60
2022-09-27T16:37:41.546Z,1.63
2022-09-27T16:40:11.209Z,2.37
2022-09-27T16:42:40.045Z,1.63
2022-09-27T16:45:11.963Z,1.70
2022-09-27T16:47:43.205Z,1.50
2022-09-27T16:50:30.423Z,1.67
2022-09-27T16:53:00.631Z,1.53
2022-09-27T16:55:30.426Z,1.40
2022-09-27T16:58:00.209Z,1.63
2022-09-27T17:00:28.762Z,1.70
2022-09-27T17:02:57.283Z,1.50
2022-09-27T17:05:25.856Z,1.43
2022-09-27T17:07:54.665Z,1.73
2022-09-27T17:10:25.219Z,1.70
2022-09-27T17:12:54.058Z,1.60
2022-09-27T17:15:22.580Z,1.80
2022-09-27T17:17:51.472Z,1.90
2022-09-27T17:20:20.158Z,1.60
2022-09-27T17:22:48.734Z,1.60
2022-09-27T17:25:17.245Z,1.60
2022-09-27T17:27:47.190Z,1.70
2022-09-27T17:30:16.528Z,1.60
2022-09-27T17:32:44.962Z,1.87
2022-09-27T17:35:13.699Z,1.90
2022-09-27T17:37:42.203Z,1.90
2022-09-27T17:40:10.835Z,1.77
2022-09-27T17:42:39.403Z,1.87
2022-09-27T17:45:10.089Z,1.60
2022-09-27T17:47:55.980Z,1.63
2022-09-27T17:50:28.723Z,2.07
2022-09-27T17:52:58.795Z,1.90
2022-09-27T17:55:27.591Z,2.20
2022-09-27T17:57:56.383Z,2.10
2022-09-27T18:00:26.329Z,2.30
2022-09-27T18:02:55.139Z,1.97
2022-09-27T18:05:23.628Z,2.20
2022-09-27T18:07:52.223Z,2.53
2022-09-27T18:10:20.742Z,2.27
2022-09-27T18:12:49.187Z,2.30
2022-09-27T18:15:20.095Z,2.37
2022-09-27T18:17:57.794Z,2.40
2022-09-27T18:20:26.736Z,2.80
2022-09-27T18:22:55.258Z,2.67
2022-09-27T18:25:25.306Z,2.93
2022-09-27T18:27:56.242Z,2.80
2022-09-27T18:30:24.846Z,2.60
2022-09-27T18:32:54.934Z,2.87
2022-09-27T18:35:24.967Z,2.90
2022-09-27T18:37:53.541Z,2.77
2022-09-27T18:40:44.370Z,3.10
2022-09-27T18:43:10.547Z,3.17
2022-09-27T18:45:39.091Z,3.20
2022-09-27T18:48:09.566Z,4.23
2022-09-27T18:50:38.550Z,3.40
2022-09-27T18:53:08.345Z,3.60
2022-09-27T18:55:38.450Z,3.30
2022-09-27T18:58:07.507Z,4.00
2022-09-27T19:00:36.139Z,3.80
2022-09-27T19:03:04.586Z,3.37
2022-09-27T19:05:34.634Z,3.27
2022-09-27T19:08:03.426Z,3.77
2022-09-27T19:10:31.867Z,4.10
2022-09-27T19:13:01.321Z,3.30
2022-09-27T19:15:29.885Z,3.57
2022-09-27T19:17:58.335Z,3.90
2022-09-27T19:20:26.925Z,3.73
2022-09-27T19:22:56.822Z,3.70
2022-09-27T19:25:25.250Z,4.50
2022-09-27T19:27:54.054Z,3.70
2022-09-27T19:30:22.487Z,4.03
2022-09-27T19:32:52.508Z,3.83
2022-09-27T19:35:21.084Z,4.10
2022-09-27T19:37:49.607Z,3.90
2022-09-27T19:40:19.533Z,4.13
2022-09-27T19:42:52.677Z,4.10
2022-09-27T19:45:21.354Z,4.30
2022-09-27T19:47:49.918Z,4.70
2022-09-27T19:50:18.847Z,4.17
2022-09-27T19:52:47.338Z,4.17
2022-09-27T19:55:15.872Z,4.30
2022-09-27T19:57:45.837Z,4.43
2022-09-27T20:00:14.396Z,4.87
2022-09-27T20:02:43.367Z,4.50
2022-09-27T20:05:12.081Z,4.60
2022-09-27T20:07:40.507Z,5.20
2022-09-27T20:10:09.722Z,4.50
2022-09-27T20:12:38.390Z,4.43
2022-09-27T20:15:08.897Z,4.40
2022-09-27T20:17:37.312Z,4.87
2022-09-27T20:20:06.158Z,4.60
2022-09-27T20:22:34.661Z,4.63
2022-09-27T20:25:03.096Z,4.53
2022-09-27T20:27:31.647Z,4.70
2022-09-27T20:30:01.309Z,4.67
2022-09-27T20:32:32.102Z,4.83
2022-09-27T20:35:00.695Z,4.87
2022-09-27T20:37:29.143Z,5.00
2022-09-27T20:39:57.897Z,4.77
2022-09-27T20:42:26.466Z,5.27
2022-09-27T20:44:54.869Z,5.20
2022-09-27T20:47:23.406Z,4.90
2022-09-27T20:49:53.378Z,5.00
2022-09-27T20:52:21.793Z,4.80
2022-09-27T20:54:50.214Z,4.87
2022-09-27T20:57:27.848Z,5.00
2022-09-27T21:00:09.612Z,5.50
2022-09-27T21:02:38.149Z,5.37
2022-09-27T21:05:08.498Z,5.47
2022-09-27T21:07:36.931Z,5.23
2022-09-27T21:10:05.733Z,5.50
2022-09-27T21:12:34.175Z,5.53
2022-09-27T21:15:02.600Z,5.00
2022-09-27T21:17:31.209Z,5.80
2022-09-27T21:20:01.499Z,5.30
2022-09-27T21:22:31.586Z,4.83
2022-09-27T21:25:00.214Z,5.50
2022-09-27T21:27:28.675Z,5.17
2022-09-27T21:29:57.102Z,5.47
2022-09-27T21:32:25.778Z,5.27
2022-09-27T21:34:55.681Z,4.83
2022-09-27T21:37:24.213Z,5.40
2022-09-27T21:39:54.164Z,4.70
2022-09-27T21:42:22.591Z,5.00
2022-09-27T21:44:51.017Z,5.03
2022-09-27T21:47:19.695Z,4.97
2022-09-27T21:49:48.149Z,4.80
2022-09-27T21:52:16.571Z,5.17
2022-09-27T21:54:45.136Z,5.20
2022-09-27T21:57:14.931Z,5.07
2022-09-27T21:59:43.370Z,5.13
2022-09-27T22:02:11.971Z,5.03
2022-09-27T22:04:40.425Z,4.73
2022-09-27T22:07:08.846Z,5.00
2022-09-27T22:09:37.626Z,5.20
2022-09-27T22:12:06.289Z,4.70
2022-09-27T22:14:36.258Z,4.97
2022-09-27T22:17:04.934Z,4.70
2022-09-27T22:19:33.375Z,4.23
2022-09-27T22:22:01.897Z,4.83
2022-09-27T22:24:30.702Z,4.50
2022-09-27T22:26:59.134Z,4.07
2022-09-27T22:29:27.576Z,4.50
2022-09-27T22:31:57.621Z,4.53
2022-09-27T22:34:29.803Z,4.60
2022-09-27T22:36:59.398Z,4.43
2022-09-27T22:39:27.889Z,4.57
2022-09-27T22:41:56.347Z,5.00
2022-09-27T22:44:24.969Z,4.33
2022-09-27T22:46:53.489Z,4.37
2022-09-27T22:49:23.347Z,4.60
2022-09-27T22:51:52.013Z,5.00
2022-09-27T22:54:20.462Z,4.43
2022-09-27T22:56:57.387Z,4.50
2022-09-27T22:59:26.322Z,4.40
2022-09-27T23:01:54.785Z,4.87
2022-09-27T23:04:24.721Z,4.27
2022-09-27T23:06:53.329Z,4.37
2022-09-27T23:09:21.937Z,4.70
2022-09-27T23:11:50.482Z,4.67
2022-09-27T23:14:21.540Z,4.40
2022-09-27T23:16:50.065Z,4.27
2022-09-27T23:19:20.281Z,5.07
2022-09-27T23:21:50.097Z,4.30
2022-09-27T23:24:19.082Z,4.00
2022-09-27T23:27:08.199Z,4.67
2022-09-27T23:29:36.735Z,4.97
2022-09-27T23:32:05.392Z,4.77
2022-09-27T23:34:34.134Z,5.30
2022-09-27T23:37:04.152Z,5.33
2022-09-27T23:39:33.739Z,5.40
2022-09-27T23:42:02.258Z,5.40
2022-09-27T23:44:31.371Z,6.13
2022-09-27T23:47:02.439Z,5.03
2022-09-27T23:49:32.943Z,5.77
2022-09-27T23:52:01.813Z,5.40
2022-09-27T23:54:31.945Z,5.80
2022-09-27T23:57:01.486Z,5.80
2022-09-27T23:59:30.349Z,5.70
